sensor_id;sensor_type;location;lat;lon;timestamp;pressure;altitude;pressure_sealevel;temperature;humidity
48624;BME280;34422;45.802;16.114;2023-04-02T00:02:54;99386.38;;;7.69;100.00
48624;BME280;34422;45.802;16.114;2023-04-02T00:07:59;99376.03;;;7.66;100.00
48624;BME280;34422;45.802;16.114;2023-04-02T00:10:32;99371.09;;;7.63;100.00
48624;BME280;34422;45.802;16.114;2023-04-02T00:15:41;99369.41;;;7.68;100.00
48624;BME280;34422;45.802;16.114;2023-04-02T00:18:12;99374.34;;;7.78;100.00
48624;BME280;34422;45.802;16.114;2023-04-02T00:20:43;99370.16;;;7.82;100.00
48624;BME280;34422;45.802;16.114;2023-04-02T00:23:13;99376.75;;;7.86;100.00
48624;BME280;34422;45.802;16.114;2023-04-02T00:25:42;99370.13;;;7.89;100.00
48624;BME280;34422;45.802;16.114;2023-04-02T00:28:18;99369.28;;;7.88;100.00
48624;BME280;34422;45.802;16.114;2023-04-02T00:30:52;99372.16;;;7.93;100.00
48624;BME280;34422;45.802;16.114;2023-04-02T00:33:22;99375.84;;;7.99;100.00
48624;BME280;34422;45.802;16.114;2023-04-02T00:35:52;99376.34;;;7.89;100.00
48624;BME280;34422;45.802;16.114;2023-04-02T00:40:55;99382.91;;;7.62;100.00
48624;BME280;34422;45.802;16.114;2023-04-02T00:43:24;99384.44;;;7.44;100.00
48624;BME280;34422;45.802;16.114;2023-04-02T00:45:54;99387.81;;;7.27;100.00
48624;BME280;34422;45.802;16.114;2023-04-02T00:48:39;99388.06;;;7.12;100.00
48624;BME280;34422;45.802;16.114;2023-04-02T00:51:34;99391.63;;;7.06;100.00
48624;BME280;34422;45.802;16.114;2023-04-02T00:54:00;99385.81;;;7.02;100.00
48624;BME280;34422;45.802;16.114;2023-04-02T00:56:38;99379.84;;;6.94;100.00
48624;BME280;34422;45.802;16.114;2023-04-02T00:59:46;99381.94;;;6.92;100.00
48624;BME280;34422;45.802;16.114;2023-04-02T01:04:55;99375.31;;;6.88;100.00
48624;BME280;34422;45.802;16.114;2023-04-02T01:07:36;99362.94;;;6.80;100.00
48624;BME280;34422;45.802;16.114;2023-04-02T01:13:07;99362.28;;;6.85;100.00
48624;BME280;34422;45.802;16.114;2023-04-02T01:15:40;99367.66;;;6.85;100.00
48624;BME280;34422;45.802;16.114;2023-04-02T01:26:14;99371.19;;;6.78;100.00
48624;BME280;34422;45.802;16.114;2023-04-02T01:29:00;99372.03;;;6.72;100.00
48624;BME280;34422;45.802;16.114;2023-04-02T01:31:29;99374.72;;;6.72;100.00
48624;BME280;34422;45.802;16.114;2023-04-02T01:33:59;99373.50;;;6.68;100.00
48624;BME280;34422;45.802;16.114;2023-04-02T01:47:19;99386.72;;;6.57;100.00
48624;BME280;34422;45.802;16.114;2023-04-02T01:49:57;99387.38;;;6.52;100.00
48624;BME280;34422;45.802;16.114;2023-04-02T01:52:38;99389.00;;;6.47;100.00
48624;BME280;34422;45.802;16.114;2023-04-02T01:55:08;99390.47;;;6.49;100.00
48624;BME280;34422;45.802;16.114;2023-04-02T01:57:43;99393.78;;;6.51;100.00
48624;BME280;34422;45.802;16.114;2023-04-02T02:00:14;99390.47;;;6.49;100.00
48624;BME280;34422;45.802;16.114;2023-04-02T02:02:42;99388.81;;;6.48;100.00
48624;BME280;34422;45.802;16.114;2023-04-02T02:05:13;99388.38;;;6.45;100.00
48624;BME280;34422;45.802;16.114;2023-04-02T02:07:41;99390.03;;;6.46;100.00
48624;BME280;34422;45.802;16.114;2023-04-02T02:10:24;99387.34;;;6.46;100.00
48624;BME280;34422;45.802;16.114;2023-04-02T02:12:51;99395.84;;;6.36;100.00
48624;BME280;34422;45.802;16.114;2023-04-02T02:15:21;99394.81;;;6.37;100.00
48624;BME280;34422;45.802;16.114;2023-04-02T02:17:49;99393.78;;;6.38;100.00
48624;BME280;34422;45.802;16.114;2023-04-02T02:20:21;99398.13;;;6.39;100.00
48624;BME280;34422;45.802;16.114;2023-04-02T02:22:49;99392.13;;;6.37;100.00
48624;BME280;34422;45.802;16.114;2023-04-02T02:25:23;99396.25;;;6.39;100.00
48624;BME280;34422;45.802;16.114;2023-04-02T02:30:47;99398.75;;;6.41;100.00
48624;BME280;34422;45.802;16.114;2023-04-02T02:33:22;99402.88;;;6.37;100.00
48624;BME280;34422;45.802;16.114;2023-04-02T02:36:02;99407.63;;;6.41;100.00
48624;BME280;34422;45.802;16.114;2023-04-02T02:41:06;99406.59;;;6.49;100.00
48624;BME280;34422;45.802;16.114;2023-04-02T02:43:37;99409.28;;;6.49;100.00
48624;BME280;34422;45.802;16.114;2023-04-02T02:46:06;99401.22;;;6.49;100.00
48624;BME280;34422;45.802;16.114;2023-04-02T02:48:37;99409.06;;;6.57;100.00
48624;BME280;34422;45.802;16.114;2023-04-02T02:51:11;99394.59;;;6.58;100.00
48624;BME280;34422;45.802;16.114;2023-04-02T02:53:51;99403.69;;;6.64;100.00
48624;BME280;34422;45.802;16.114;2023-04-02T02:56:20;99403.66;;;6.70;100.00
48624;BME280;34422;45.802;16.114;2023-04-02T02:58:51;99404.91;;;6.81;100.00
48624;BME280;34422;45.802;16.114;2023-04-02T03:01:18;99408.84;;;6.78;100.00
48624;BME280;34422;45.802;16.114;2023-04-02T03:03:45;99410.91;;;6.76;100.00
48624;BME280;34422;45.802;16.114;2023-04-02T03:06:16;99418.97;;;6.76;100.00
48624;BME280;34422;45.802;16.114;2023-04-02T03:09:17;99414.84;;;6.81;100.00
48624;BME280;34422;45.802;16.114;2023-04-02T03:12:26;99424.13;;;6.85;100.00
48624;BME280;34422;45.802;16.114;2023-04-02T03:20:16;99422.69;;;6.75;100.00
48624;BME280;34422;45.802;16.114;2023-04-02T03:23:06;99421.25;;;6.80;100.00
48624;BME280;34422;45.802;16.114;2023-04-02T03:28:42;99428.47;;;6.86;100.00
48624;BME280;34422;45.802;16.114;2023-04-02T03:31:37;99425.56;;;6.87;100.00
48624;BME280;34422;45.802;16.114;2023-04-02T03:34:25;99434.69;;;6.93;100.00
48624;BME280;34422;45.802;16.114;2023-04-02T03:37:10;99430.13;;;6.87;100.00
48624;BME280;34422;45.802;16.114;2023-04-02T03:39:46;99431.16;;;6.92;100.00
48624;BME280;34422;45.802;16.114;2023-04-02T03:42:24;99419.38;;;6.87;100.00
48624;BME280;34422;45.802;16.114;2023-04-02T03:45:02;99429.47;;;6.98;100.00
48624;BME280;34422;45.802;16.114;2023-04-02T03:47:37;99424.31;;;7.03;100.00
48624;BME280;34422;45.802;16.114;2023-04-02T03:50:11;99436.31;;;7.07;100.00
48624;BME280;34422;45.802;16.114;2023-04-02T03:52:41;99442.72;;;7.06;100.00
48624;BME280;34422;45.802;16.114;2023-04-02T03:55:35;99443.38;;;6.95;100.00
48624;BME280;34422;45.802;16.114;2023-04-02T03:58:10;99440.06;;;6.80;100.00
48624;BME280;34422;45.802;16.114;2023-04-02T04:01:02;99451.63;;;6.87;100.00
48624;BME280;34422;45.802;16.114;2023-04-02T04:03:41;99443.38;;;6.82;100.00
48624;BME280;34422;45.802;16.114;2023-04-02T04:08:53;99446.25;;;6.87;100.00
48624;BME280;34422;45.802;16.114;2023-04-02T04:11:24;99456.22;;;6.80;100.00
48624;BME280;34422;45.802;16.114;2023-04-02T04:14:05;99465.31;;;6.78;100.00
48624;BME280;34422;45.802;16.114;2023-04-02T04:16:53;99474.41;;;6.77;100.00
48624;BME280;34422;45.802;16.114;2023-04-02T04:19:32;99466.97;;;6.80;100.00
48624;BME280;34422;45.802;16.114;2023-04-02T04:22:08;99479.75;;;6.84;100.00
48624;BME280;34422;45.802;16.114;2023-04-02T04:24:36;99479.38;;;6.81;100.00
48624;BME280;34422;45.802;16.114;2023-04-02T04:27:10;99481.44;;;6.78;100.00
48624;BME280;34422;45.802;16.114;2023-04-02T04:30:00;99482.69;;;6.76;100.00
48624;BME280;34422;45.802;16.114;2023-04-02T04:32:33;99493.44;;;6.83;100.00
48624;BME280;34422;45.802;16.114;2023-04-02T04:37:40;99496.31;;;6.88;100.00
48624;BME280;34422;45.802;16.114;2023-04-02T04:40:19;99499.41;;;6.98;100.00
48624;BME280;34422;45.802;16.114;2023-04-02T04:42:49;99498.38;;;6.99;100.00
48624;BME280;34422;45.802;16.114;2023-04-02T04:48:07;99507.47;;;6.45;100.00
48624;BME280;34422;45.802;16.114;2023-04-02T04:50:48;99515.25;;;6.20;100.00
48624;BME280;34422;45.802;16.114;2023-04-02T04:53:19;99519.38;;;6.10;100.00
48624;BME280;34422;45.802;16.114;2023-04-02T04:55:49;99517.31;;;6.18;100.00
48624;BME280;34422;45.802;16.114;2023-04-02T04:58:24;99522.06;;;6.16;100.00
48624;BME280;34422;45.802;16.114;2023-04-02T05:01:03;99522.09;;;6.23;100.00
48624;BME280;34422;45.802;16.114;2023-04-02T05:06:56;99526.09;;;6.53;100.00
48624;BME280;34422;45.802;16.114;2023-04-02T05:09:35;99528.41;;;6.69;100.00
48624;BME280;34422;45.802;16.114;2023-04-02T05:12:31;99537.66;;;6.60;100.00
48624;BME280;34422;45.802;16.114;2023-04-02T05:20:19;99536.22;;;6.58;100.00
48624;BME280;34422;45.802;16.114;2023-04-02T05:22:51;99536.66;;;6.68;100.00
48624;BME280;34422;45.802;16.114;2023-04-02T05:25:24;99532.94;;;6.75;100.00
48624;BME280;34422;45.802;16.114;2023-04-02T05:27:58;99538.53;;;6.81;100.00
48624;BME280;34422;45.802;16.114;2023-04-02T05:35:28;99543.91;;;7.07;100.00
48624;BME280;34422;45.802;16.114;2023-04-02T05:37:58;99544.34;;;7.10;100.00
48624;BME280;34422;45.802;16.114;2023-04-02T05:40:41;99552.16;;;7.25;100.00
48624;BME280;34422;45.802;16.114;2023-04-02T05:43:15;99557.53;;;7.38;100.00
48624;BME280;34422;45.802;16.114;2023-04-02T05:45:50;99555.84;;;7.64;100.00
48624;BME280;34422;45.802;16.114;2023-04-02T05:48:20;99558.25;;;7.85;100.00
48624;BME280;34422;45.802;16.114;2023-04-02T05:50:53;99563.56;;;8.11;100.00
48624;BME280;34422;45.802;16.114;2023-04-02T05:53:29;99573.44;;;8.31;100.00
48624;BME280;34422;45.802;16.114;2023-04-02T05:56:04;99568.34;;;8.54;100.00
48624;BME280;34422;45.802;16.114;2023-04-02T05:58:43;99579.78;;;8.81;100.00
48624;BME280;34422;45.802;16.114;2023-04-02T06:04:06;99583.94;;;9.33;100.00
48624;BME280;34422;45.802;16.114;2023-04-02T06:15:18;99605.56;;;10.19;100.00
48624;BME280;34422;45.802;16.114;2023-04-02T06:20:33;99605.09;;;10.22;100.00
48624;BME280;34422;45.802;16.114;2023-04-02T06:23:05;99607.78;;;9.61;100.00
48624;BME280;34422;45.802;16.114;2023-04-02T06:25:37;99614.53;;;9.95;100.00
48624;BME280;34422;45.802;16.114;2023-04-02T06:28:11;99619.69;;;10.21;100.00
48624;BME280;34422;45.802;16.114;2023-04-02T06:30:40;99618.59;;;10.41;100.00
48624;BME280;34422;45.802;16.114;2023-04-02T06:33:10;99617.25;;;10.50;100.00
48624;BME280;34422;45.802;16.114;2023-04-02T06:35:40;99627.56;;;10.23;100.00
48624;BME280;34422;45.802;16.114;2023-04-02T06:38:16;99624.22;;;10.57;100.00
48624;BME280;34422;45.802;16.114;2023-04-02T06:40:51;99626.25;;;10.92;100.00
48624;BME280;34422;45.802;16.114;2023-04-02T06:43:41;99623.56;;;11.03;100.00
48624;BME280;34422;45.802;16.114;2023-04-02T06:46:26;99637.78;;;11.40;100.00
48624;BME280;34422;45.802;16.114;2023-04-02T06:49:02;99636.41;;;11.08;100.00
48624;BME280;34422;45.802;16.114;2023-04-02T06:51:31;99644.09;;;11.23;100.00
48624;BME280;34422;45.802;16.114;2023-04-02T06:53:59;99645.69;;;11.00;100.00
48624;BME280;34422;45.802;16.114;2023-04-02T06:56:45;99647.53;;;10.88;100.00
48624;BME280;34422;45.802;16.114;2023-04-02T06:59:13;99654.25;;;11.39;100.00
48624;BME280;34422;45.802;16.114;2023-04-02T07:01:44;99648.75;;;11.57;100.00
48624;BME280;34422;45.802;16.114;2023-04-02T07:04:12;99657.47;;;11.59;100.00
48624;BME280;34422;45.802;16.114;2023-04-02T07:06:39;99653.59;;;11.67;100.00
48624;BME280;34422;45.802;16.114;2023-04-02T07:09:06;99657.72;;;11.69;100.00
48624;BME280;34422;45.802;16.114;2023-04-02T07:11:33;99657.38;;;11.78;100.00
48624;BME280;34422;45.802;16.114;2023-04-02T07:14:00;99660.41;;;11.58;100.00
48624;BME280;34422;45.802;16.114;2023-04-02T07:16:29;99668.09;;;11.72;100.00
48624;BME280;34422;45.802;16.114;2023-04-02T07:18:56;99670.13;;;11.35;100.00
48624;BME280;34422;45.802;16.114;2023-04-02T07:21:25;99669.19;;;11.30;100.00
48624;BME280;34422;45.802;16.114;2023-04-02T07:23:53;99676.31;;;11.66;100.00
48624;BME280;34422;45.802;16.114;2023-04-02T07:26:22;99682.94;;;11.70;100.00
48624;BME280;34422;45.802;16.114;2023-04-02T07:28:51;99687.09;;;11.96;100.00
48624;BME280;34422;45.802;16.114;2023-04-02T07:31:24;99685.09;;;11.80;100.00
48624;BME280;34422;45.802;16.114;2023-04-02T07:33:53;99671.28;;;11.69;100.00
48624;BME280;34422;45.802;16.114;2023-04-02T07:36:22;99686.88;;;12.09;100.00
48624;BME280;34422;45.802;16.114;2023-04-02T07:38:49;99688.75;;;12.20;100.00
48624;BME280;34422;45.802;16.114;2023-04-02T07:41:16;99690.13;;;12.34;100.00
48624;BME280;34422;45.802;16.114;2023-04-02T07:43:45;99696.53;;;12.05;100.00
48624;BME280;34422;45.802;16.114;2023-04-02T07:46:13;99688.88;;;12.14;100.00
48624;BME280;34422;45.802;16.114;2023-04-02T07:48:42;99694.38;;;12.30;100.00
48624;BME280;34422;45.802;16.114;2023-04-02T07:51:17;99698.91;;;12.13;100.00
48624;BME280;34422;45.802;16.114;2023-04-02T07:53:44;99699.97;;;12.00;100.00
48624;BME280;34422;45.802;16.114;2023-04-02T07:56:18;99709.38;;;12.21;100.00
48624;BME280;34422;45.802;16.114;2023-04-02T07:58:44;99709.38;;;12.21;100.00
48624;BME280;34422;45.802;16.114;2023-04-02T08:01:22;99715.09;;;12.60;100.00
48624;BME280;34422;45.802;16.114;2023-04-02T08:03:56;99718.75;;;12.65;100.00
48624;BME280;34422;45.802;16.114;2023-04-02T08:06:23;99716.09;;;12.54;100.00
48624;BME280;34422;45.802;16.114;2023-04-02T08:08:50;99715.09;;;12.60;100.00
48624;BME280;34422;45.802;16.114;2023-04-02T08:11:16;99711.41;;;12.77;100.00
48624;BME280;34422;45.802;16.114;2023-04-02T08:13:44;99703.50;;;12.76;100.00
48624;BME280;34422;45.802;16.114;2023-04-02T08:16:11;99716.25;;;13.44;100.00
48624;BME280;34422;45.802;16.114;2023-04-02T08:18:38;99716.88;;;13.79;100.00
48624;BME280;34422;45.802;16.114;2023-04-02T08:21:06;99717.28;;;14.05;100.00
48624;BME280;34422;45.802;16.114;2023-04-02T08:23:34;99721.22;;;14.14;100.00
48624;BME280;34422;45.802;16.114;2023-04-02T08:26:01;99713.66;;;13.82;100.00
48624;BME280;34422;45.802;16.114;2023-04-02T08:28:28;99724.41;;;13.44;100.00
48624;BME280;34422;45.802;16.114;2023-04-02T08:30:55;99723.88;;;13.75;100.00
48624;BME280;34422;45.802;16.114;2023-04-02T08:33:21;99720.56;;;13.57;100.00
48624;BME280;34422;45.802;16.114;2023-04-02T08:35:49;99717.69;;;13.97;100.00
48624;BME280;34422;45.802;16.114;2023-04-02T08:38:17;99722.50;;;14.62;100.00
48624;BME280;34422;45.802;16.114;2023-04-02T08:40:48;99717.81;;;15.27;100.00
48624;BME280;34422;45.802;16.114;2023-04-02T08:45:58;99714.38;;;15.64;100.00
48624;BME280;34422;45.802;16.114;2023-04-02T08:48:28;99717.97;;;16.44;100.00
48624;BME280;34422;45.802;16.114;2023-04-02T08:50:57;99718.78;;;16.44;82.21
48624;BME280;34422;45.802;16.114;2023-04-02T08:53:28;99727.25;;;16.90;77.18
48624;BME280;34422;45.802;16.114;2023-04-02T08:56:08;99724.75;;;17.66;71.67
48624;BME280;34422;45.802;16.114;2023-04-02T08:58:51;99730.50;;;15.97;82.77
48624;BME280;34422;45.802;16.114;2023-04-02T09:01:33;99723.19;;;15.71;88.27
48624;BME280;34422;45.802;16.114;2023-04-02T09:04:04;99731.88;;;16.79;75.08
48624;BME280;34422;45.802;16.114;2023-04-02T09:06:32;99732.56;;;15.85;81.08
48624;BME280;34422;45.802;16.114;2023-04-02T09:09:00;99733.19;;;16.29;81.46
48624;BME280;34422;45.802;16.114;2023-04-02T09:14:18;99736.03;;;15.49;82.16
48624;BME280;34422;45.802;16.114;2023-04-02T09:16:52;99738.16;;;15.42;84.54
48624;BME280;34422;45.802;16.114;2023-04-02T09:19:22;99735.44;;;15.47;85.08
48624;BME280;34422;45.802;16.114;2023-04-02T09:22:03;99739.34;;;15.02;87.60
48624;BME280;34422;45.802;16.114;2023-04-02T09:24:32;99736.72;;;14.90;90.26
48624;BME280;34422;45.802;16.114;2023-04-02T09:26:59;99739.66;;;14.62;91.91
48624;BME280;34422;45.802;16.114;2023-04-02T09:29:42;99740.84;;;14.93;93.70
48624;BME280;34422;45.802;16.114;2023-04-02T09:32:22;99749.19;;;14.65;95.12
48624;BME280;34422;45.802;16.114;2023-04-02T09:35:05;99745.50;;;14.37;92.73
48624;BME280;34422;45.802;16.114;2023-04-02T09:37:32;99743.22;;;14.29;94.38
48624;BME280;34422;45.802;16.114;2023-04-02T09:40:23;99743.66;;;14.21;95.84
48624;BME280;34422;45.802;16.114;2023-04-02T09:45:33;99755.53;;;14.15;92.42
48624;BME280;34422;45.802;16.114;2023-04-02T09:48:00;99752.03;;;14.36;95.27
48624;BME280;34422;45.802;16.114;2023-04-02T09:50:30;99742.66;;;14.27;95.81
48624;BME280;34422;45.802;16.114;2023-04-02T09:52:58;99748.56;;;14.24;93.58
48624;BME280;34422;45.802;16.114;2023-04-02T09:55:26;99744.53;;;14.27;94.61
48624;BME280;34422;45.802;16.114;2023-04-02T09:58:14;99745.63;;;14.26;93.94
48624;BME280;34422;45.802;16.114;2023-04-02T10:00:59;99740.19;;;14.09;94.32
48624;BME280;34422;45.802;16.114;2023-04-02T10:03:28;99729.81;;;14.06;95.82
48624;BME280;34422;45.802;16.114;2023-04-02T10:06:08;99744.13;;;14.35;94.10
48624;BME280;34422;45.802;16.114;2023-04-02T10:08:37;99750.38;;;14.52;91.98
48624;BME280;34422;45.802;16.114;2023-04-02T10:11:09;99747.16;;;14.77;85.21
48624;BME280;34422;45.802;16.114;2023-04-02T10:16:35;99744.72;;;15.46;84.54
48624;BME280;34422;45.802;16.114;2023-04-02T10:19:25;99748.44;;;15.61;78.00
48624;BME280;34422;45.802;16.114;2023-04-02T10:21:54;99749.63;;;15.22;80.96
48624;BME280;34422;45.802;16.114;2023-04-02T10:24:26;99748.31;;;15.24;80.78
48624;BME280;34422;45.802;16.114;2023-04-02T10:30:04;99742.88;;;15.51;77.86
48624;BME280;34422;45.802;16.114;2023-04-02T10:32:49;99732.59;;;15.58;82.90
48624;BME280;34422;45.802;16.114;2023-04-02T10:38:25;99730.16;;;16.68;75.39
48624;BME280;34422;45.802;16.114;2023-04-02T10:41:21;99727.75;;;16.77;67.25
48624;BME280;34422;45.802;16.114;2023-04-02T10:47:02;99730.63;;;17.07;69.40
48624;BME280;34422;45.802;16.114;2023-04-02T10:49:59;99737.66;;;16.98;64.30
48624;BME280;34422;45.802;16.114;2023-04-02T10:52:37;99725.84;;;16.82;62.77
48624;BME280;34422;45.802;16.114;2023-04-02T10:55:17;99723.97;;;16.88;62.97
48624;BME280;34422;45.802;16.114;2023-04-02T10:57:44;99722.16;;;17.14;67.74
48624;BME280;34422;45.802;16.114;2023-04-02T11:02:58;99707.72;;;17.38;64.28
48624;BME280;34422;45.802;16.114;2023-04-02T11:05:47;99710.47;;;17.44;58.33
48624;BME280;34422;45.802;16.114;2023-04-02T11:08:38;99697.28;;;17.25;59.57
48624;BME280;34422;45.802;16.114;2023-04-02T11:14:02;99711.06;;;17.71;57.38
48624;BME280;34422;45.802;16.114;2023-04-02T11:16:31;99701.13;;;17.24;57.45
48624;BME280;34422;45.802;16.114;2023-04-02T11:24:52;99707.50;;;18.06;55.48
48624;BME280;34422;45.802;16.114;2023-04-02T11:27:26;99703.91;;;18.21;54.07
48624;BME280;34422;45.802;16.114;2023-04-02T11:30:04;99712.66;;;18.33;54.88
48624;BME280;34422;45.802;16.114;2023-04-02T11:32:39;99705.59;;;17.96;52.47
48624;BME280;34422;45.802;16.114;2023-04-02T11:38:00;99706.69;;;17.80;56.66
48624;BME280;34422;45.802;16.114;2023-04-02T11:40:45;99703.97;;;17.90;57.18
48624;BME280;34422;45.802;16.114;2023-04-02T11:46:03;99701.41;;;18.60;52.03
48624;BME280;34422;45.802;16.114;2023-04-02T11:48:35;99696.75;;;18.50;51.60
48624;BME280;34422;45.802;16.114;2023-04-02T11:53:58;99688.63;;;18.09;51.45
48624;BME280;34422;45.802;16.114;2023-04-02T11:56:32;99687.53;;;17.80;53.71
48624;BME280;34422;45.802;16.114;2023-04-02T11:59:23;99685.34;;;17.72;54.53
48624;BME280;34422;45.802;16.114;2023-04-02T12:07:30;99680.94;;;17.56;53.75
48624;BME280;34422;45.802;16.114;2023-04-02T12:10:15;99673.22;;;17.17;54.58
48624;BME280;34422;45.802;16.114;2023-04-02T12:12:42;99672.72;;;17.35;53.89
48624;BME280;34422;45.802;16.114;2023-04-02T12:15:30;99668.59;;;17.38;56.51
48624;BME280;34422;45.802;16.114;2023-04-02T12:18:24;99676.59;;;17.80;52.09
48624;BME280;34422;45.802;16.114;2023-04-02T12:20:55;99667.84;;;17.88;51.55
48624;BME280;34422;45.802;16.114;2023-04-02T12:23:27;99666.16;;;17.47;53.21
48624;BME280;34422;45.802;16.114;2023-04-02T12:25:59;99659.63;;;18.03;52.42
48624;BME280;34422;45.802;16.114;2023-04-02T12:28:28;99655.06;;;18.68;53.70
48624;BME280;34422;45.802;16.114;2023-04-02T12:31:11;99652.34;;;18.63;51.52
48624;BME280;34422;45.802;16.114;2023-04-02T12:33:39;99653.84;;;18.15;51.52
48624;BME280;34422;45.802;16.114;2023-04-02T12:36:18;99656.00;;;18.28;53.14
48624;BME280;34422;45.802;16.114;2023-04-02T12:38:52;99646.44;;;18.05;53.99
48624;BME280;34422;45.802;16.114;2023-04-02T12:41:28;99659.34;;;17.80;54.33
48624;BME280;34422;45.802;16.114;2023-04-02T12:44:00;99655.22;;;17.47;54.24
48624;BME280;34422;45.802;16.114;2023-04-02T12:46:28;99669.44;;;17.44;54.69
48624;BME280;34422;45.802;16.114;2023-04-02T12:49:05;99681.31;;;16.82;58.39
48624;BME280;34422;45.802;16.114;2023-04-02T12:51:36;99697.66;;;15.87;66.98
48624;BME280;34422;45.802;16.114;2023-04-02T12:54:03;99699.56;;;15.01;71.63
48624;BME280;34422;45.802;16.114;2023-04-02T12:56:30;99701.94;;;13.99;83.54
48624;BME280;34422;45.802;16.114;2023-04-02T12:58:59;99704.91;;;14.14;74.76
48624;BME280;34422;45.802;16.114;2023-04-02T13:01:28;99697.50;;;13.59;98.61
48624;BME280;34422;45.802;16.114;2023-04-02T13:04:04;99667.75;;;13.07;100.00
48624;BME280;34422;45.802;16.114;2023-04-02T13:06:32;99675.41;;;13.39;73.99
48624;BME280;34422;45.802;16.114;2023-04-02T13:09:03;99654.31;;;13.46;100.00
48624;BME280;34422;45.802;16.114;2023-04-02T13:11:38;99659.66;;;13.41;100.00
48624;BME280;34422;45.802;16.114;2023-04-02T13:14:08;99655.47;;;13.33;100.00
48624;BME280;34422;45.802;16.114;2023-04-02T13:16:42;99651.25;;;13.26;100.00
48624;BME280;34422;45.802;16.114;2023-04-02T13:19:10;99643.59;;;13.39;100.00
48624;BME280;34422;45.802;16.114;2023-04-02T13:21:43;99636.38;;;13.45;96.98
48624;BME280;34422;45.802;16.114;2023-04-02T13:24:21;99636.78;;;13.53;100.00
48624;BME280;34422;45.802;16.114;2023-04-02T13:26:50;99640.50;;;13.64;100.00
48624;BME280;34422;45.802;16.114;2023-04-02T13:31:49;99628.13;;;13.73;100.00
48624;BME280;34422;45.802;16.114;2023-04-02T13:34:16;99638.09;;;13.68;100.00
48624;BME280;34422;45.802;16.114;2023-04-02T13:36:44;99628.13;;;13.40;100.00
48624;BME280;34422;45.802;16.114;2023-04-02T13:39:16;99627.63;;;13.43;100.00
48624;BME280;34422;45.802;16.114;2023-04-02T13:41:53;99629.13;;;13.05;100.00
48624;BME280;34422;45.802;16.114;2023-04-02T13:44:31;99628.28;;;13.16;100.00
48624;BME280;34422;45.802;16.114;2023-04-02T13:46:59;99631.09;;;13.55;100.00
48624;BME280;34422;45.802;16.114;2023-04-02T13:49:26;99632.44;;;13.52;100.00
48624;BME280;34422;45.802;16.114;2023-04-02T13:51:58;99635.69;;;13.55;100.00
48624;BME280;34422;45.802;16.114;2023-04-02T13:56:56;99628.66;;;13.08;100.00
48624;BME280;34422;45.802;16.114;2023-04-02T13:59:25;99620.06;;;13.28;100.00
48624;BME280;34422;45.802;16.114;2023-04-02T14:01:55;99631.28;;;13.48;100.00
48624;BME280;34422;45.802;16.114;2023-04-02T14:04:26;99627.97;;;13.63;100.00
48624;BME280;34422;45.802;16.114;2023-04-02T14:07:11;99625.00;;;13.65;100.00
48624;BME280;34422;45.802;16.114;2023-04-02T14:15:26;99627.44;;;14.00;100.00
48624;BME280;34422;45.802;16.114;2023-04-02T14:23:17;99619.94;;;14.29;100.00
48624;BME280;34422;45.802;16.114;2023-04-02T14:25:59;99618.41;;;14.38;100.00
48624;BME280;34422;45.802;16.114;2023-04-02T14:29:10;99618.84;;;14.46;100.00
48624;BME280;34422;45.802;16.114;2023-04-02T14:31:46;99616.97;;;14.74;100.00
48624;BME280;34422;45.802;16.114;2023-04-02T14:34:35;99615.09;;;14.74;100.00
48624;BME280;34422;45.802;16.114;2023-04-02T14:37:12;99621.31;;;14.48;100.00
48624;BME280;34422;45.802;16.114;2023-04-02T14:45:12;99608.69;;;14.64;100.00
48624;BME280;34422;45.802;16.114;2023-04-02T14:48:03;99617.44;;;14.44;100.00
48624;BME280;34422;45.802;16.114;2023-04-02T14:50:37;99609.50;;;14.64;100.00
48624;BME280;34422;45.802;16.114;2023-04-02T14:53:27;99610.66;;;14.68;100.00
48624;BME280;34422;45.802;16.114;2023-04-02T14:55:58;99609.75;;;14.63;100.00
48624;BME280;34422;45.802;16.114;2023-04-02T14:58:36;99614.13;;;14.64;100.00
48624;BME280;34422;45.802;16.114;2023-04-02T15:01:24;99615.94;;;14.80;100.00
48624;BME280;34422;45.802;16.114;2023-04-02T15:03:57;99621.88;;;14.77;100.00
48624;BME280;34422;45.802;16.114;2023-04-02T15:06:40;99618.50;;;14.91;100.00
48624;BME280;34422;45.802;16.114;2023-04-02T15:11:56;99613.16;;;15.28;100.00
48624;BME280;34422;45.802;16.114;2023-04-02T15:14:36;99611.81;;;15.31;100.00
48624;BME280;34422;45.802;16.114;2023-04-02T15:17:05;99613.69;;;15.25;100.00
48624;BME280;34422;45.802;16.114;2023-04-02T15:19:32;99610.47;;;15.34;100.00
48624;BME280;34422;45.802;16.114;2023-04-02T15:22:25;99613.06;;;15.18;100.00
48624;BME280;34422;45.802;16.114;2023-04-02T15:25:15;99614.56;;;15.04;100.00
48624;BME280;34422;45.802;16.114;2023-04-02T15:30:40;99615.00;;;15.23;100.00
48624;BME280;34422;45.802;16.114;2023-04-02T15:33:43;99614.81;;;15.29;100.00
48624;BME280;34422;45.802;16.114;2023-04-02T15:39:33;99620.84;;;15.37;100.00
48624;BME280;34422;45.802;16.114;2023-04-02T15:45:36;99630.19;;;15.46;100.00
48624;BME280;34422;45.802;16.114;2023-04-02T15:50:41;99631.84;;;15.47;100.00
48624;BME280;34422;45.802;16.114;2023-04-02T15:56:14;99637.00;;;15.70;100.00
48624;BME280;34422;45.802;16.114;2023-04-02T15:58:54;99632.00;;;15.62;99.46
48624;BME280;34422;45.802;16.114;2023-04-02T16:10:30;99653.66;;;15.47;86.59
48624;BME280;34422;45.802;16.114;2023-04-02T16:12:58;99660.16;;;15.41;86.68
48624;BME280;34422;45.802;16.114;2023-04-02T16:15:27;99653.41;;;15.16;89.96
48624;BME280;34422;45.802;16.114;2023-04-02T16:18:00;99667.31;;;15.20;93.45
48624;BME280;34422;45.802;16.114;2023-04-02T16:20:36;99679.00;;;15.15;96.30